sensor_id;sensor_type;location;lat;lon;timestamp;pressure;altitude;pressure_sealevel;temperature
70831;BMP180;58451;51.550;7.208;2022-12-18T00:01:00;102031.80;;;-9.30
70831;BMP180;58451;51.550;7.208;2022-12-18T00:02:37;102029.60;;;-9.30
70831;BMP180;58451;51.550;7.208;2022-12-18T00:04:25;102027.40;;;-9.30
70831;BMP180;58451;51.550;7.208;2022-12-18T00:05:57;102033.00;;;-9.30
70831;BMP180;58451;51.550;7.208;2022-12-18T00:07:29;102031.40;;;-9.30
70831;BMP180;58451;51.550;7.208;2022-12-18T00:09:02;102029.80;;;-9.30
70831;BMP180;58451;51.550;7.208;2022-12-18T00:10:35;102040.80;;;-9.36
70831;BMP180;58451;51.550;7.208;2022-12-18T00:12:07;102037.80;;;-9.40
70831;BMP180;58451;51.550;7.208;2022-12-18T00:13:48;102040.20;;;-9.40
70831;BMP180;58451;51.550;7.208;2022-12-18T00:15:20;102045.20;;;-9.40
70831;BMP180;58451;51.550;7.208;2022-12-18T00:16:55;102045.40;;;-9.40
70831;BMP180;58451;51.550;7.208;2022-12-18T00:18:35;102053.40;;;-9.40
70831;BMP180;58451;51.550;7.208;2022-12-18T00:20:11;102052.00;;;-9.48
70831;BMP180;58451;51.550;7.208;2022-12-18T00:21:45;102057.40;;;-9.50
70831;BMP180;58451;51.550;7.208;2022-12-18T00:23:17;102048.80;;;-9.50
70831;BMP180;58451;51.550;7.208;2022-12-18T00:24:49;102050.60;;;-9.50
70831;BMP180;58451;51.550;7.208;2022-12-18T00:26:31;102048.20;;;-9.50
70831;BMP180;58451;51.550;7.208;2022-12-18T00:28:05;102040.40;;;-9.60
70831;BMP180;58451;51.550;7.208;2022-12-18T00:29:39;102040.00;;;-9.60
70831;BMP180;58451;51.550;7.208;2022-12-18T00:31:15;102035.00;;;-9.60
70831;BMP180;58451;51.550;7.208;2022-12-18T00:32:49;102030.20;;;-9.60
70831;BMP180;58451;51.550;7.208;2022-12-18T00:34:22;102025.80;;;-9.64
70831;BMP180;58451;51.550;7.208;2022-12-18T00:36:10;102027.00;;;-9.70
70831;BMP180;58451;51.550;7.208;2022-12-18T00:37:43;102027.00;;;-9.70
70831;BMP180;58451;51.550;7.208;2022-12-18T00:39:15;102023.60;;;-9.70
70831;BMP180;58451;51.550;7.208;2022-12-18T00:40:48;102025.40;;;-9.70
70831;BMP180;58451;51.550;7.208;2022-12-18T00:42:21;102026.20;;;-9.70
70831;BMP180;58451;51.550;7.208;2022-12-18T00:44:15;102033.60;;;-9.70
70831;BMP180;58451;51.550;7.208;2022-12-18T00:45:49;102027.00;;;-9.70
70831;BMP180;58451;51.550;7.208;2022-12-18T00:47:24;102034.80;;;-9.70
70831;BMP180;58451;51.550;7.208;2022-12-18T00:48:56;102035.40;;;-9.70
70831;BMP180;58451;51.550;7.208;2022-12-18T00:50:28;102035.00;;;-9.72
70831;BMP180;58451;51.550;7.208;2022-12-18T00:52:00;102038.80;;;-9.70
70831;BMP180;58451;51.550;7.208;2022-12-18T00:53:32;102035.20;;;-9.70
70831;BMP180;58451;51.550;7.208;2022-12-18T00:55:05;102036.80;;;-9.80
70831;BMP180;58451;51.550;7.208;2022-12-18T00:56:40;102035.00;;;-9.74
70831;BMP180;58451;51.550;7.208;2022-12-18T00:58:20;102039.80;;;-9.74
70831;BMP180;58451;51.550;7.208;2022-12-18T00:59:52;102043.40;;;-9.74
70831;BMP180;58451;51.550;7.208;2022-12-18T01:01:24;102044.20;;;-9.70
70831;BMP180;58451;51.550;7.208;2022-12-18T01:02:56;102053.20;;;-9.72
70831;BMP180;58451;51.550;7.208;2022-12-18T01:04:32;102045.80;;;-9.74
70831;BMP180;58451;51.550;7.208;2022-12-18T01:06:10;102044.40;;;-9.70
70831;BMP180;58451;51.550;7.208;2022-12-18T01:07:44;102041.60;;;-9.70
70831;BMP180;58451;51.550;7.208;2022-12-18T01:09:16;102042.40;;;-9.70
70831;BMP180;58451;51.550;7.208;2022-12-18T01:10:48;102044.60;;;-9.70
70831;BMP180;58451;51.550;7.208;2022-12-18T01:12:20;102043.20;;;-9.70
70831;BMP180;58451;51.550;7.208;2022-12-18T01:13:55;102041.60;;;-9.70
70831;BMP180;58451;51.550;7.208;2022-12-18T01:15:27;102040.80;;;-9.70
70831;BMP180;58451;51.550;7.208;2022-12-18T01:16:59;102042.20;;;-9.70
70831;BMP180;58451;51.550;7.208;2022-12-18T01:18:31;102043.40;;;-9.70
70831;BMP180;58451;51.550;7.208;2022-12-18T01:20:04;102044.00;;;-9.70
70831;BMP180;58451;51.550;7.208;2022-12-18T01:21:38;102047.40;;;-9.70
70831;BMP180;58451;51.550;7.208;2022-12-18T01:23:09;102041.40;;;-9.70
70831;BMP180;58451;51.550;7.208;2022-12-18T01:24:41;102043.00;;;-9.70
70831;BMP180;58451;51.550;7.208;2022-12-18T01:26:18;102039.40;;;-9.70
70831;BMP180;58451;51.550;7.208;2022-12-18T01:27:53;102039.20;;;-9.70
70831;BMP180;58451;51.550;7.208;2022-12-18T01:29:30;102035.20;;;-9.74
70831;BMP180;58451;51.550;7.208;2022-12-18T01:31:31;102036.60;;;-9.74
70831;BMP180;58451;51.550;7.208;2022-12-18T01:33:07;102039.60;;;-9.80
70831;BMP180;58451;51.550;7.208;2022-12-18T01:34:39;102035.60;;;-9.80
70831;BMP180;58451;51.550;7.208;2022-12-18T01:36:25;102039.40;;;-9.80
70831;BMP180;58451;51.550;7.208;2022-12-18T01:37:57;102036.60;;;-9.78
70831;BMP180;58451;51.550;7.208;2022-12-18T01:39:32;102033.20;;;-9.78
70831;BMP180;58451;51.550;7.208;2022-12-18T01:41:04;102027.40;;;-9.80
70831;BMP180;58451;51.550;7.208;2022-12-18T01:42:37;102025.60;;;-9.80
70831;BMP180;58451;51.550;7.208;2022-12-18T01:45:04;102025.40;;;-9.80
70831;BMP180;58451;51.550;7.208;2022-12-18T01:46:36;102025.80;;;-9.80
70831;BMP180;58451;51.550;7.208;2022-12-18T01:48:09;102027.00;;;-9.80
70831;BMP180;58451;51.550;7.208;2022-12-18T01:49:41;102025.60;;;-9.80
70831;BMP180;58451;51.550;7.208;2022-12-18T01:51:15;102029.00;;;-9.80
70831;BMP180;58451;51.550;7.208;2022-12-18T01:52:54;102024.60;;;-9.80
70831;BMP180;58451;51.550;7.208;2022-12-18T01:54:28;102021.00;;;-9.80
70831;BMP180;58451;51.550;7.208;2022-12-18T01:56:00;102024.40;;;-9.80
70831;BMP180;58451;51.550;7.208;2022-12-18T01:57:33;102026.20;;;-9.80
70831;BMP180;58451;51.550;7.208;2022-12-18T01:59:09;102025.00;;;-9.80
70831;BMP180;58451;51.550;7.208;2022-12-18T02:00:41;102026.20;;;-9.80
70831;BMP180;58451;51.550;7.208;2022-12-18T02:02:15;102025.00;;;-9.80
70831;BMP180;58451;51.550;7.208;2022-12-18T02:03:49;102023.60;;;-9.80
70831;BMP180;58451;51.550;7.208;2022-12-18T02:09:32;102019.80;;;-9.80
70831;BMP180;58451;51.550;7.208;2022-12-18T02:12:53;102013.60;;;-9.80
70831;BMP180;58451;51.550;7.208;2022-12-18T02:14:38;102012.00;;;-9.80
70831;BMP180;58451;51.550;7.208;2022-12-18T02:16:52;102005.40;;;-9.88
70831;BMP180;58451;51.550;7.208;2022-12-18T02:18:35;102009.20;;;-9.90
70831;BMP180;58451;51.550;7.208;2022-12-18T02:22:36;102014.60;;;-9.90
70831;BMP180;58451;51.550;7.208;2022-12-18T02:27:45;102006.00;;;-10.00
70831;BMP180;58451;51.550;7.208;2022-12-18T02:29:24;102008.20;;;-10.00
70831;BMP180;58451;51.550;7.208;2022-12-18T02:31:07;102000.60;;;-10.00
70831;BMP180;58451;51.550;7.208;2022-12-18T02:32:47;102009.40;;;-10.06
70831;BMP180;58451;51.550;7.208;2022-12-18T02:34:26;102004.00;;;-10.10
70831;BMP180;58451;51.550;7.208;2022-12-18T02:36:06;102006.40;;;-10.10
70831;BMP180;58451;51.550;7.208;2022-12-18T02:37:44;102001.60;;;-10.10
70831;BMP180;58451;51.550;7.208;2022-12-18T02:39:20;101995.80;;;-10.10
70831;BMP180;58451;51.550;7.208;2022-12-18T02:41:03;101998.80;;;-10.10
70831;BMP180;58451;51.550;7.208;2022-12-18T02:42:35;102000.40;;;-10.10
70831;BMP180;58451;51.550;7.208;2022-12-18T02:44:12;101999.40;;;-10.10
70831;BMP180;58451;51.550;7.208;2022-12-18T02:46:00;101997.00;;;-10.12
70831;BMP180;58451;51.550;7.208;2022-12-18T02:47:42;102002.60;;;-10.14
70831;BMP180;58451;51.550;7.208;2022-12-18T02:53:28;102002.40;;;-10.20
70831;BMP180;58451;51.550;7.208;2022-12-18T02:57:14;102005.80;;;-10.20
70831;BMP180;58451;51.550;7.208;2022-12-18T02:59:02;102007.00;;;-10.20
70831;BMP180;58451;51.550;7.208;2022-12-18T03:01:25;102007.80;;;-10.20
70831;BMP180;58451;51.550;7.208;2022-12-18T03:03:30;102018.20;;;-10.20
70831;BMP180;58451;51.550;7.208;2022-12-18T03:06:51;102007.60;;;-10.20
70831;BMP180;58451;51.550;7.208;2022-12-18T03:08:39;102008.80;;;-10.20
70831;BMP180;58451;51.550;7.208;2022-12-18T03:10:19;102007.00;;;-10.20
70831;BMP180;58451;51.550;7.208;2022-12-18T03:12:00;102010.60;;;-10.20
70831;BMP180;58451;51.550;7.208;2022-12-18T03:13:57;102008.80;;;-10.20
70831;BMP180;58451;51.550;7.208;2022-12-18T03:15:46;102010.00;;;-10.20
70831;BMP180;58451;51.550;7.208;2022-12-18T03:17:26;102004.60;;;-10.20
70831;BMP180;58451;51.550;7.208;2022-12-18T03:19:05;102006.00;;;-10.20
70831;BMP180;58451;51.550;7.208;2022-12-18T03:20:42;102008.00;;;-10.24
70831;BMP180;58451;51.550;7.208;2022-12-18T03:22:18;102013.00;;;-10.28
70831;BMP180;58451;51.550;7.208;2022-12-18T03:23:54;102009.80;;;-10.26
70831;BMP180;58451;51.550;7.208;2022-12-18T03:25:29;102010.40;;;-10.20
70831;BMP180;58451;51.550;7.208;2022-12-18T03:27:06;102011.20;;;-10.20
70831;BMP180;58451;51.550;7.208;2022-12-18T03:28:48;102003.00;;;-10.20
70831;BMP180;58451;51.550;7.208;2022-12-18T03:30:22;102007.60;;;-10.10
70831;BMP180;58451;51.550;7.208;2022-12-18T03:32:10;102005.00;;;-10.10
70831;BMP180;58451;51.550;7.208;2022-12-18T03:34:01;102000.40;;;-10.00
70831;BMP180;58451;51.550;7.208;2022-12-18T03:35:42;101993.20;;;-9.90
70831;BMP180;58451;51.550;7.208;2022-12-18T03:37:16;101997.00;;;-9.80
70831;BMP180;58451;51.550;7.208;2022-12-18T03:38:49;101989.40;;;-9.80
70831;BMP180;58451;51.550;7.208;2022-12-18T03:40:31;101984.40;;;-9.78
70831;BMP180;58451;51.550;7.208;2022-12-18T03:46:27;101984.20;;;-9.50
70831;BMP180;58451;51.550;7.208;2022-12-18T03:48:17;101981.40;;;-9.40
70831;BMP180;58451;51.550;7.208;2022-12-18T03:49:58;101997.20;;;-9.30
70831;BMP180;58451;51.550;7.208;2022-12-18T03:53:48;101997.80;;;-9.20
70831;BMP180;58451;51.550;7.208;2022-12-18T03:55:27;101996.60;;;-9.10
70831;BMP180;58451;51.550;7.208;2022-12-18T03:57:22;101989.00;;;-9.10
70831;BMP180;58451;51.550;7.208;2022-12-18T03:58:59;101995.60;;;-9.10
70831;BMP180;58451;51.550;7.208;2022-12-18T04:00:33;101994.00;;;-9.06
70831;BMP180;58451;51.550;7.208;2022-12-18T04:02:10;101991.20;;;-9.06
70831;BMP180;58451;51.550;7.208;2022-12-18T04:03:48;101991.80;;;-9.00
70831;BMP180;58451;51.550;7.208;2022-12-18T04:05:24;101993.40;;;-9.00
70831;BMP180;58451;51.550;7.208;2022-12-18T04:06:58;101999.20;;;-8.90
70831;BMP180;58451;51.550;7.208;2022-12-18T04:08:32;101991.00;;;-8.90
70831;BMP180;58451;51.550;7.208;2022-12-18T04:10:10;101989.00;;;-8.90
70831;BMP180;58451;51.550;7.208;2022-12-18T04:11:43;101990.60;;;-8.90
70831;BMP180;58451;51.550;7.208;2022-12-18T04:13:32;101986.00;;;-8.80
70831;BMP180;58451;51.550;7.208;2022-12-18T04:15:08;101989.40;;;-8.70
70831;BMP180;58451;51.550;7.208;2022-12-18T04:16:41;101988.40;;;-8.70
70831;BMP180;58451;51.550;7.208;2022-12-18T04:18:14;101987.40;;;-8.70
70831;BMP180;58451;51.550;7.208;2022-12-18T04:19:46;101992.40;;;-8.68
70831;BMP180;58451;51.550;7.208;2022-12-18T04:21:19;101986.60;;;-8.66
70831;BMP180;58451;51.550;7.208;2022-12-18T04:22:52;101990.20;;;-8.66
70831;BMP180;58451;51.550;7.208;2022-12-18T04:24:24;101985.60;;;-8.70
70831;BMP180;58451;51.550;7.208;2022-12-18T04:26:08;101985.80;;;-8.70
70831;BMP180;58451;51.550;7.208;2022-12-18T04:27:47;101990.40;;;-8.78
70831;BMP180;58451;51.550;7.208;2022-12-18T04:29:19;101984.20;;;-8.88
70831;BMP180;58451;51.550;7.208;2022-12-18T04:30:56;101988.40;;;-8.92
70831;BMP180;58451;51.550;7.208;2022-12-18T04:32:35;101981.80;;;-9.08
70831;BMP180;58451;51.550;7.208;2022-12-18T04:34:09;101984.80;;;-9.10
70831;BMP180;58451;51.550;7.208;2022-12-18T04:35:45;101980.80;;;-9.20
70831;BMP180;58451;51.550;7.208;2022-12-18T04:37:18;101984.20;;;-9.24
70831;BMP180;58451;51.550;7.208;2022-12-18T04:38:50;101988.40;;;-9.30
70831;BMP180;58451;51.550;7.208;2022-12-18T04:40:24;101984.00;;;-9.32
70831;BMP180;58451;51.550;7.208;2022-12-18T04:41:56;101984.40;;;-9.40
70831;BMP180;58451;51.550;7.208;2022-12-18T04:43:31;101991.80;;;-9.48
70831;BMP180;58451;51.550;7.208;2022-12-18T04:45:05;101990.80;;;-9.50
70831;BMP180;58451;51.550;7.208;2022-12-18T04:46:37;101989.60;;;-9.50
70831;BMP180;58451;51.550;7.208;2022-12-18T04:48:09;101990.40;;;-9.50
70831;BMP180;58451;51.550;7.208;2022-12-18T04:49:41;101983.40;;;-9.50
70831;BMP180;58451;51.550;7.208;2022-12-18T04:51:13;101983.60;;;-9.50
70831;BMP180;58451;51.550;7.208;2022-12-18T04:52:45;101984.40;;;-9.50
70831;BMP180;58451;51.550;7.208;2022-12-18T04:54:17;101981.60;;;-9.40
70831;BMP180;58451;51.550;7.208;2022-12-18T04:55:49;101984.00;;;-9.40
70831;BMP180;58451;51.550;7.208;2022-12-18T04:57:21;101979.00;;;-9.30
70831;BMP180;58451;51.550;7.208;2022-12-18T04:58:53;101981.20;;;-9.24
70831;BMP180;58451;51.550;7.208;2022-12-18T05:00:25;101978.80;;;-9.20
70831;BMP180;58451;51.550;7.208;2022-12-18T05:01:58;101979.00;;;-9.20
70831;BMP180;58451;51.550;7.208;2022-12-18T05:03:30;101972.60;;;-9.20
70831;BMP180;58451;51.550;7.208;2022-12-18T05:05:03;101972.40;;;-9.18
70831;BMP180;58451;51.550;7.208;2022-12-18T05:06:36;101971.00;;;-9.10
70831;BMP180;58451;51.550;7.208;2022-12-18T05:08:08;101967.80;;;-9.10
70831;BMP180;58451;51.550;7.208;2022-12-18T05:09:41;101960.60;;;-9.00
70831;BMP180;58451;51.550;7.208;2022-12-18T05:11:14;101960.60;;;-9.00
70831;BMP180;58451;51.550;7.208;2022-12-18T05:12:50;101954.40;;;-8.90
70831;BMP180;58451;51.550;7.208;2022-12-18T05:14:32;101953.40;;;-8.90
70831;BMP180;58451;51.550;7.208;2022-12-18T05:16:05;101950.00;;;-8.90
70831;BMP180;58451;51.550;7.208;2022-12-18T05:17:37;101944.80;;;-8.90
70831;BMP180;58451;51.550;7.208;2022-12-18T05:19:09;101950.40;;;-8.90
70831;BMP180;58451;51.550;7.208;2022-12-18T05:20:41;101947.80;;;-9.00
70831;BMP180;58451;51.550;7.208;2022-12-18T05:22:13;101947.60;;;-9.00
70831;BMP180;58451;51.550;7.208;2022-12-18T05:23:45;101944.40;;;-9.10
70831;BMP180;58451;51.550;7.208;2022-12-18T05:25:18;101947.40;;;-9.20
70831;BMP180;58451;51.550;7.208;2022-12-18T05:26:51;101943.00;;;-9.30
70831;BMP180;58451;51.550;7.208;2022-12-18T05:28:25;101940.80;;;-9.34
70831;BMP180;58451;51.550;7.208;2022-12-18T05:29:57;101943.00;;;-9.40
70831;BMP180;58451;51.550;7.208;2022-12-18T05:31:29;101942.60;;;-9.40
70831;BMP180;58451;51.550;7.208;2022-12-18T05:33:08;101942.40;;;-9.48
70831;BMP180;58451;51.550;7.208;2022-12-18T05:34:41;101938.00;;;-9.50
70831;BMP180;58451;51.550;7.208;2022-12-18T05:36:17;101936.60;;;-9.50
70831;BMP180;58451;51.550;7.208;2022-12-18T05:37:49;101941.40;;;-9.50
70831;BMP180;58451;51.550;7.208;2022-12-18T05:39:25;101940.00;;;-9.50
70831;BMP180;58451;51.550;7.208;2022-12-18T05:40:58;101942.80;;;-9.40
70831;BMP180;58451;51.550;7.208;2022-12-18T05:42:31;101943.40;;;-9.32
70831;BMP180;58451;51.550;7.208;2022-12-18T05:44:03;101947.00;;;-9.30
70831;BMP180;58451;51.550;7.208;2022-12-18T05:45:38;101950.80;;;-9.30
70831;BMP180;58451;51.550;7.208;2022-12-18T05:47:10;101950.20;;;-9.28
70831;BMP180;58451;51.550;7.208;2022-12-18T05:48:43;101957.00;;;-9.20
70831;BMP180;58451;51.550;7.208;2022-12-18T05:50:15;101961.20;;;-9.20
70831;BMP180;58451;51.550;7.208;2022-12-18T05:51:47;101969.40;;;-9.20
70831;BMP180;58451;51.550;7.208;2022-12-18T05:53:20;101969.80;;;-9.20
70831;BMP180;58451;51.550;7.208;2022-12-18T05:54:52;101970.80;;;-9.20
70831;BMP180;58451;51.550;7.208;2022-12-18T05:56:24;101973.80;;;-9.20
70831;BMP180;58451;51.550;7.208;2022-12-18T05:57:56;101974.60;;;-9.22
70831;BMP180;58451;51.550;7.208;2022-12-18T05:59:30;101979.60;;;-9.26
70831;BMP180;58451;51.550;7.208;2022-12-18T06:01:19;101975.00;;;-9.24
70831;BMP180;58451;51.550;7.208;2022-12-18T06:02:52;101969.20;;;-9.20
70831;BMP180;58451;51.550;7.208;2022-12-18T06:04:27;101971.80;;;-9.20
70831;BMP180;58451;51.550;7.208;2022-12-18T06:06:01;101972.20;;;-9.28
70831;BMP180;58451;51.550;7.208;2022-12-18T06:07:33;101975.60;;;-9.30
70831;BMP180;58451;51.550;7.208;2022-12-18T06:09:05;101983.40;;;-9.30
70831;BMP180;58451;51.550;7.208;2022-12-18T06:10:41;101982.80;;;-9.40
70831;BMP180;58451;51.550;7.208;2022-12-18T06:12:13;101979.00;;;-9.40
70831;BMP180;58451;51.550;7.208;2022-12-18T06:13:46;101985.00;;;-9.50
70831;BMP180;58451;51.550;7.208;2022-12-18T06:15:27;101986.40;;;-9.50
70831;BMP180;58451;51.550;7.208;2022-12-18T06:16:59;101989.40;;;-9.50
70831;BMP180;58451;51.550;7.208;2022-12-18T06:18:32;101989.20;;;-9.50
70831;BMP180;58451;51.550;7.208;2022-12-18T06:20:05;102001.60;;;-9.50
70831;BMP180;58451;51.550;7.208;2022-12-18T06:21:37;102002.00;;;-9.50
70831;BMP180;58451;51.550;7.208;2022-12-18T06:23:09;102004.60;;;-9.52
70831;BMP180;58451;51.550;7.208;2022-12-18T06:24:41;102008.80;;;-9.50
70831;BMP180;58451;51.550;7.208;2022-12-18T06:26:13;102009.80;;;-9.48
70831;BMP180;58451;51.550;7.208;2022-12-18T06:27:47;102015.00;;;-9.44
70831;BMP180;58451;51.550;7.208;2022-12-18T06:29:19;102015.00;;;-9.40
70831;BMP180;58451;51.550;7.208;2022-12-18T06:30:51;102017.00;;;-9.32
70831;BMP180;58451;51.550;7.208;2022-12-18T06:32:26;102017.00;;;-9.20
70831;BMP180;58451;51.550;7.208;2022-12-18T06:34:03;102019.60;;;-9.20
70831;BMP180;58451;51.550;7.208;2022-12-18T06:35:36;102016.20;;;-9.10
70831;BMP180;58451;51.550;7.208;2022-12-18T06:37:10;102016.40;;;-9.18
70831;BMP180;58451;51.550;7.208;2022-12-18T06:38:44;102017.60;;;-9.12
70831;BMP180;58451;51.550;7.208;2022-12-18T06:40:16;102007.60;;;-9.10
70831;BMP180;58451;51.550;7.208;2022-12-18T06:41:48;102010.40;;;-9.10
70831;BMP180;58451;51.550;7.208;2022-12-18T06:43:21;102011.80;;;-9.20
70831;BMP180;58451;51.550;7.208;2022-12-18T06:44:54;102007.80;;;-9.12
70831;BMP180;58451;51.550;7.208;2022-12-18T06:46:26;102011.00;;;-9.10
70831;BMP180;58451;51.550;7.208;2022-12-18T06:47:59;102003.40;;;-9.10
70831;BMP180;58451;51.550;7.208;2022-12-18T06:49:31;102003.80;;;-9.10
70831;BMP180;58451;51.550;7.208;2022-12-18T06:51:05;102001.20;;;-9.00
70831;BMP180;58451;51.550;7.208;2022-12-18T06:52:37;102001.00;;;-9.00
70831;BMP180;58451;51.550;7.208;2022-12-18T06:54:10;101996.40;;;-9.00
70831;BMP180;58451;51.550;7.208;2022-12-18T06:55:43;101996.20;;;-9.10
70831;BMP180;58451;51.550;7.208;2022-12-18T06:57:16;101991.20;;;-9.16
70831;BMP180;58451;51.550;7.208;2022-12-18T06:58:49;101989.40;;;-9.20
70831;BMP180;58451;51.550;7.208;2022-12-18T07:00:21;101988.60;;;-9.30
70831;BMP180;58451;51.550;7.208;2022-12-18T07:01:53;101978.40;;;-9.30
70831;BMP180;58451;51.550;7.208;2022-12-18T07:03:25;101973.40;;;-9.28
70831;BMP180;58451;51.550;7.208;2022-12-18T07:04:58;101979.20;;;-9.20
70831;BMP180;58451;51.550;7.208;2022-12-18T07:06:34;101975.00;;;-9.20
70831;BMP180;58451;51.550;7.208;2022-12-18T07:08:07;101978.80;;;-9.12
70831;BMP180;58451;51.550;7.208;2022-12-18T07:09:40;101976.60;;;-9.10
70831;BMP180;58451;51.550;7.208;2022-12-18T07:11:13;101968.20;;;-9.10
70831;BMP180;58451;51.550;7.208;2022-12-18T07:12:45;101971.60;;;-9.10
70831;BMP180;58451;51.550;7.208;2022-12-18T07:14:17;101971.20;;;-9.16
70831;BMP180;58451;51.550;7.208;2022-12-18T07:15:50;101969.20;;;-9.20
70831;BMP180;58451;51.550;7.208;2022-12-18T07:17:22;101967.20;;;-9.20
70831;BMP180;58451;51.550;7.208;2022-12-18T07:18:55;101971.00;;;-9.20
70831;BMP180;58451;51.550;7.208;2022-12-18T07:20:28;101968.20;;;-9.20
70831;BMP180;58451;51.550;7.208;2022-12-18T07:22:01;101968.00;;;-9.10
70831;BMP180;58451;51.550;7.208;2022-12-18T07:23:36;101965.00;;;-9.20
70831;BMP180;58451;51.550;7.208;2022-12-18T07:25:08;101966.20;;;-9.20
70831;BMP180;58451;51.550;7.208;2022-12-18T07:26:40;101961.60;;;-9.18
70831;BMP180;58451;51.550;7.208;2022-12-18T07:28:12;101967.40;;;-9.20
70831;BMP180;58451;51.550;7.208;2022-12-18T07:29:48;101965.00;;;-9.10
70831;BMP180;58451;51.550;7.208;2022-12-18T07:31:24;101967.00;;;-9.02
70831;BMP180;58451;51.550;7.208;2022-12-18T07:32:56;101956.20;;;-9.10
70831;BMP180;58451;51.550;7.208;2022-12-18T07:34:28;101961.00;;;-9.00
70831;BMP180;58451;51.550;7.208;2022-12-18T07:36:02;101959.00;;;-9.00
70831;BMP180;58451;51.550;7.208;2022-12-18T07:37:35;101952.00;;;-9.08
70831;BMP180;58451;51.550;7.208;2022-12-18T07:39:12;101947.60;;;-9.10
70831;BMP180;58451;51.550;7.208;2022-12-18T07:40:44;101961.80;;;-9.20
70831;BMP180;58451;51.550;7.208;2022-12-18T07:42:21;101960.40;;;-9.10
70831;BMP180;58451;51.550;7.208;2022-12-18T07:44:10;101953.80;;;-9.10
70831;BMP180;58451;51.550;7.208;2022-12-18T07:45:43;101960.60;;;-9.08
70831;BMP180;58451;51.550;7.208;2022-12-18T07:47:16;101955.00;;;-9.02
70831;BMP180;58451;51.550;7.208;2022-12-18T07:48:49;101951.60;;;-9.08
70831;BMP180;58451;51.550;7.208;2022-12-18T07:50:21;101952.80;;;-9.00
70831;BMP180;58451;51.550;7.208;2022-12-18T07:51:57;101950.80;;;-9.00
70831;BMP180;58451;51.550;7.208;2022-12-18T07:53:35;101946.60;;;-9.00
70831;BMP180;58451;51.550;7.208;2022-12-18T07:55:12;101944.40;;;-9.00
70831;BMP180;58451;51.550;7.208;2022-12-18T07:56:47;101948.20;;;-8.98
70831;BMP180;58451;51.550;7.208;2022-12-18T07:58:19;101954.20;;;-8.90
70831;BMP180;58451;51.550;7.208;2022-12-18T07:59:51;101962.20;;;-8.86
70831;BMP180;58451;51.550;7.208;2022-12-18T08:01:23;101966.80;;;-8.76
70831;BMP180;58451;51.550;7.208;2022-12-18T08:02:55;101962.00;;;-8.70
70831;BMP180;58451;51.550;7.208;2022-12-18T08:04:27;101966.80;;;-8.68
70831;BMP180;58451;51.550;7.208;2022-12-18T08:06:01;101964.00;;;-8.68
70831;BMP180;58451;51.550;7.208;2022-12-18T08:07:33;101961.20;;;-8.66
70831;BMP180;58451;51.550;7.208;2022-12-18T08:09:05;101960.60;;;-8.56
70831;BMP180;58451;51.550;7.208;2022-12-18T08:10:38;101959.20;;;-8.50
70831;BMP180;58451;51.550;7.208;2022-12-18T08:12:10;101958.60;;;-8.44
70831;BMP180;58451;51.550;7.208;2022-12-18T08:13:42;101962.20;;;-8.40
70831;BMP180;58451;51.550;7.208;2022-12-18T08:15:14;101959.00;;;-8.38
70831;BMP180;58451;51.550;7.208;2022-12-18T08:16:46;101959.20;;;-8.30
70831;BMP180;58451;51.550;7.208;2022-12-18T08:18:18;101961.20;;;-8.22
70831;BMP180;58451;51.550;7.208;2022-12-18T08:19:50;101963.80;;;-8.20
70831;BMP180;58451;51.550;7.208;2022-12-18T08:21:27;101955.00;;;-8.10
70831;BMP180;58451;51.550;7.208;2022-12-18T08:23:01;101951.80;;;-8.10
70831;BMP180;58451;51.550;7.208;2022-12-18T08:24:32;101942.60;;;-8.00
70831;BMP180;58451;51.550;7.208;2022-12-18T08:26:05;101941.40;;;-7.92
70831;BMP180;58451;51.550;7.208;2022-12-18T08:27:37;101939.00;;;-7.90
70831;BMP180;58451;51.550;7.208;2022-12-18T08:29:10;101930.80;;;-7.80
70831;BMP180;58451;51.550;7.208;2022-12-18T08:30:42;101928.60;;;-7.80
70831;BMP180;58451;51.550;7.208;2022-12-18T08:32:14;101923.00;;;-7.70
70831;BMP180;58451;51.550;7.208;2022-12-18T08:33:49;101919.20;;;-7.70
70831;BMP180;58451;51.550;7.208;2022-12-18T08:35:21;101917.60;;;-7.60
70831;BMP180;58451;51.550;7.208;2022-12-18T08:36:53;101918.00;;;-7.60
70831;BMP180;58451;51.550;7.208;2022-12-18T08:38:24;101914.60;;;-7.60
70831;BMP180;58451;51.550;7.208;2022-12-18T08:39:56;101909.00;;;-7.60
70831;BMP180;58451;51.550;7.208;2022-12-18T08:41:28;101911.20;;;-7.62
70831;BMP180;58451;51.550;7.208;2022-12-18T08:43:01;101903.80;;;-7.62
70831;BMP180;58451;51.550;7.208;2022-12-18T08:44:51;101897.80;;;-7.60
70831;BMP180;58451;51.550;7.208;2022-12-18T08:46:26;101901.20;;;-7.60
70831;BMP180;58451;51.550;7.208;2022-12-18T08:47:58;101894.00;;;-7.60
70831;BMP180;58451;51.550;7.208;2022-12-18T08:49:33;101889.60;;;-7.54
70831;BMP180;58451;51.550;7.208;2022-12-18T08:51:05;101897.40;;;-7.50
70831;BMP180;58451;51.550;7.208;2022-12-18T08:52:37;101893.80;;;-7.40
70831;BMP180;58451;51.550;7.208;2022-12-18T08:54:12;101899.80;;;-7.30
70831;BMP180;58451;51.550;7.208;2022-12-18T08:55:45;101901.80;;;-7.20
70831;BMP180;58451;51.550;7.208;2022-12-18T08:57:21;101902.60;;;-7.20
70831;BMP180;58451;51.550;7.208;2022-12-18T08:58:54;101900.20;;;-7.10
70831;BMP180;58451;51.550;7.208;2022-12-18T09:00:26;101906.60;;;-7.00
70831;BMP180;58451;51.550;7.208;2022-12-18T09:01:58;101896.20;;;-6.88
70831;BMP180;58451;51.550;7.208;2022-12-18T09:03:30;101897.20;;;-6.80
70831;BMP180;58451;51.550;7.208;2022-12-18T09:05:03;101890.60;;;-6.70
70831;BMP180;58451;51.550;7.208;2022-12-18T09:06:37;101896.40;;;-6.60
70831;BMP180;58451;51.550;7.208;2022-12-18T09:08:10;101892.20;;;-6.56
70831;BMP180;58451;51.550;7.208;2022-12-18T09:09:42;101899.60;;;-6.50
70831;BMP180;58451;51.550;7.208;2022-12-18T09:12:52;101894.00;;;-6.40
70831;BMP180;58451;51.550;7.208;2022-12-18T09:14:23;101888.20;;;-6.30
70831;BMP180;58451;51.550;7.208;2022-12-18T09:15:56;101888.80;;;-6.22
70831;BMP180;58451;51.550;7.208;2022-12-18T09:17:28;101880.00;;;-6.20
70831;BMP180;58451;51.550;7.208;2022-12-18T09:19:04;101883.60;;;-6.10
70831;BMP180;58451;51.550;7.208;2022-12-18T09:20:37;101883.80;;;-6.10
70831;BMP180;58451;51.550;7.208;2022-12-18T09:22:09;101879.80;;;-6.10
70831;BMP180;58451;51.550;7.208;2022-12-18T09:23:41;101875.40;;;-6.04
70831;BMP180;58451;51.550;7.208;2022-12-18T09:25:14;101864.80;;;-6.00
70831;BMP180;58451;51.550;7.208;2022-12-18T09:26:47;101858.20;;;-5.92
70831;BMP180;58451;51.550;7.208;2022-12-18T09:28:21;101859.00;;;-5.90